sensor_id;sensor_type;location;lat;lon;timestamp;P1;durP1;ratioP1;P2;durP2;ratioP2
60076;SDS011;45950;45.208;20.374;2023-04-06T00:00:57;20.90;;;13.63;;
60076;SDS011;45950;45.208;20.374;2023-04-06T00:03:24;22.97;;;14.13;;
60076;SDS011;45950;45.208;20.374;2023-04-06T00:05:50;20.10;;;13.83;;
60076;SDS011;45950;45.208;20.374;2023-04-06T00:08:17;21.63;;;13.43;;
60076;SDS011;45950;45.208;20.374;2023-04-06T00:10:43;20.30;;;13.77;;
60076;SDS011;45950;45.208;20.374;2023-04-06T00:13:10;22.27;;;13.90;;
60076;SDS011;45950;45.208;20.374;2023-04-06T00:15:36;19.90;;;13.10;;
60076;SDS011;45950;45.208;20.374;2023-04-06T00:18:04;18.20;;;13.43;;
60076;SDS011;45950;45.208;20.374;2023-04-06T00:20:31;22.07;;;14.53;;
60076;SDS011;45950;45.208;20.374;2023-04-06T00:22:57;19.73;;;13.30;;
60076;SDS011;45950;45.208;20.374;2023-04-06T00:25:24;21.40;;;14.07;;
60076;SDS011;45950;45.208;20.374;2023-04-06T00:27:51;19.20;;;13.50;;
60076;SDS011;45950;45.208;20.374;2023-04-06T00:30:17;20.97;;;13.83;;
60076;SDS011;45950;45.208;20.374;2023-04-06T00:32:44;19.47;;;13.40;;
60076;SDS011;45950;45.208;20.374;2023-04-06T00:35:12;20.00;;;13.70;;
60076;SDS011;45950;45.208;20.374;2023-04-06T00:37:40;19.10;;;12.73;;
60076;SDS011;45950;45.208;20.374;2023-04-06T00:40:07;19.00;;;12.83;;
60076;SDS011;45950;45.208;20.374;2023-04-06T00:42:33;19.27;;;13.63;;
60076;SDS011;45950;45.208;20.374;2023-04-06T00:45:00;19.20;;;12.70;;
60076;SDS011;45950;45.208;20.374;2023-04-06T00:47:26;17.30;;;12.87;;
60076;SDS011;45950;45.208;20.374;2023-04-06T00:49:53;18.90;;;13.10;;
60076;SDS011;45950;45.208;20.374;2023-04-06T00:52:21;19.77;;;13.03;;
60076;SDS011;45950;45.208;20.374;2023-04-06T00:54:48;22.13;;;13.70;;
60076;SDS011;45950;45.208;20.374;2023-04-06T00:57:14;18.57;;;13.27;;
60076;SDS011;45950;45.208;20.374;2023-04-06T00:59:41;22.17;;;14.20;;
60076;SDS011;45950;45.208;20.374;2023-04-06T01:02:08;19.23;;;13.13;;
60076;SDS011;45950;45.208;20.374;2023-04-06T01:04:35;19.40;;;13.37;;
60076;SDS011;45950;45.208;20.374;2023-04-06T01:07:01;21.83;;;14.03;;
60076;SDS011;45950;45.208;20.374;2023-04-06T01:09:29;20.53;;;13.33;;
60076;SDS011;45950;45.208;20.374;2023-04-06T01:11:56;18.20;;;12.77;;
60076;SDS011;45950;45.208;20.374;2023-04-06T01:14:23;20.63;;;13.60;;
60076;SDS011;45950;45.208;20.374;2023-04-06T01:16:50;20.37;;;12.93;;
60076;SDS011;45950;45.208;20.374;2023-04-06T01:19:16;20.67;;;13.50;;
60076;SDS011;45950;45.208;20.374;2023-04-06T01:21:43;21.83;;;14.20;;
60076;SDS011;45950;45.208;20.374;2023-04-06T01:24:11;20.53;;;13.20;;
60076;SDS011;45950;45.208;20.374;2023-04-06T01:26:37;18.00;;;11.87;;
60076;SDS011;45950;45.208;20.374;2023-04-06T01:29:04;23.47;;;13.87;;
60076;SDS011;45950;45.208;20.374;2023-04-06T01:31:30;20.30;;;13.17;;
60076;SDS011;45950;45.208;20.374;2023-04-06T01:33:57;18.37;;;11.67;;
60076;SDS011;45950;45.208;20.374;2023-04-06T01:36:23;19.80;;;13.17;;
60076;SDS011;45950;45.208;20.374;2023-04-06T01:38:50;20.53;;;13.27;;
60076;SDS011;45950;45.208;20.374;2023-04-06T01:41:18;21.43;;;13.90;;
60076;SDS011;45950;45.208;20.374;2023-04-06T01:43:45;22.23;;;12.87;;
60076;SDS011;45950;45.208;20.374;2023-04-06T01:46:12;21.88;;;12.82;;
60076;SDS011;45950;45.208;20.374;2023-04-06T01:48:38;26.63;;;15.20;;
60076;SDS011;45950;45.208;20.374;2023-04-06T01:51:06;21.83;;;15.97;;
60076;SDS011;45950;45.208;20.374;2023-04-06T01:53:32;23.20;;;15.52;;
60076;SDS011;45950;45.208;20.374;2023-04-06T01:55:59;23.37;;;15.13;;
60076;SDS011;45950;45.208;20.374;2023-04-06T01:58:27;22.75;;;14.10;;
60076;SDS011;45950;45.208;20.374;2023-04-06T02:00:53;25.13;;;15.40;;
60076;SDS011;45950;45.208;20.374;2023-04-06T02:03:19;23.20;;;15.30;;
60076;SDS011;45950;45.208;20.374;2023-04-06T02:05:46;28.23;;;14.73;;
60076;SDS011;45950;45.208;20.374;2023-04-06T02:08:12;26.20;;;16.33;;
60076;SDS011;45950;45.208;20.374;2023-04-06T02:10:39;21.43;;;13.93;;
60076;SDS011;45950;45.208;20.374;2023-04-06T02:16:09;22.47;;;13.77;;
60076;SDS011;45950;45.208;20.374;2023-04-06T02:18:36;23.67;;;14.93;;
60076;SDS011;45950;45.208;20.374;2023-04-06T02:21:02;22.50;;;15.23;;
60076;SDS011;45950;45.208;20.374;2023-04-06T02:23:29;21.10;;;13.90;;
60076;SDS011;45950;45.208;20.374;2023-04-06T02:25:56;19.00;;;12.57;;
60076;SDS011;45950;45.208;20.374;2023-04-06T02:28:22;20.47;;;14.30;;
60076;SDS011;45950;45.208;20.374;2023-04-06T02:30:49;24.30;;;14.77;;
60076;SDS011;45950;45.208;20.374;2023-04-06T02:33:16;24.50;;;15.30;;
60076;SDS011;45950;45.208;20.374;2023-04-06T02:35:43;23.33;;;14.83;;
60076;SDS011;45950;45.208;20.374;2023-04-06T02:38:10;23.73;;;15.33;;
60076;SDS011;45950;45.208;20.374;2023-04-06T02:40:36;23.63;;;16.03;;
60076;SDS011;45950;45.208;20.374;2023-04-06T02:43:03;24.97;;;14.30;;
60076;SDS011;45950;45.208;20.374;2023-04-06T02:45:29;23.47;;;14.70;;
60076;SDS011;45950;45.208;20.374;2023-04-06T02:47:56;26.00;;;18.23;;
60076;SDS011;45950;45.208;20.374;2023-04-06T02:50:24;31.83;;;19.63;;
60076;SDS011;45950;45.208;20.374;2023-04-06T02:52:51;30.13;;;16.90;;
60076;SDS011;45950;45.208;20.374;2023-04-06T02:55:17;27.10;;;17.83;;
60076;SDS011;45950;45.208;20.374;2023-04-06T02:57:44;24.67;;;16.17;;
60076;SDS011;45950;45.208;20.374;2023-04-06T03:00:11;27.13;;;16.00;;
60076;SDS011;45950;45.208;20.374;2023-04-06T03:02:38;28.33;;;18.10;;
60076;SDS011;45950;45.208;20.374;2023-04-06T03:05:05;27.20;;;17.40;;
60076;SDS011;45950;45.208;20.374;2023-04-06T03:07:33;26.50;;;15.17;;
60076;SDS011;45950;45.208;20.374;2023-04-06T03:09:59;23.03;;;15.50;;
60076;SDS011;45950;45.208;20.374;2023-04-06T03:12:25;24.73;;;15.40;;
60076;SDS011;45950;45.208;20.374;2023-04-06T03:14:52;22.67;;;14.97;;
60076;SDS011;45950;45.208;20.374;2023-04-06T03:17:18;25.03;;;17.00;;
60076;SDS011;45950;45.208;20.374;2023-04-06T03:19:45;25.90;;;16.27;;
60076;SDS011;45950;45.208;20.374;2023-04-06T03:22:11;24.87;;;15.87;;
60076;SDS011;45950;45.208;20.374;2023-04-06T03:24:39;24.57;;;15.70;;
60076;SDS011;45950;45.208;20.374;2023-04-06T03:27:06;30.60;;;19.50;;
60076;SDS011;45950;45.208;20.374;2023-04-06T03:29:47;25.07;;;16.07;;
60076;SDS011;45950;45.208;20.374;2023-04-06T03:32:14;23.13;;;14.40;;
60076;SDS011;45950;45.208;20.374;2023-04-06T03:34:40;26.50;;;16.77;;
60076;SDS011;45950;45.208;20.374;2023-04-06T03:37:07;24.57;;;15.37;;
60076;SDS011;45950;45.208;20.374;2023-04-06T03:39:33;25.27;;;15.77;;
60076;SDS011;45950;45.208;20.374;2023-04-06T03:42:03;25.67;;;16.97;;
60076;SDS011;45950;45.208;20.374;2023-04-06T03:44:30;24.70;;;15.40;;
60076;SDS011;45950;45.208;20.374;2023-04-06T03:46:56;30.53;;;20.33;;
60076;SDS011;45950;45.208;20.374;2023-04-06T03:49:23;29.50;;;18.27;;
60076;SDS011;45950;45.208;20.374;2023-04-06T03:51:49;26.97;;;17.00;;
60076;SDS011;45950;45.208;20.374;2023-04-06T03:54:16;44.53;;;26.10;;
60076;SDS011;45950;45.208;20.374;2023-04-06T03:56:42;45.03;;;26.83;;
60076;SDS011;45950;45.208;20.374;2023-04-06T03:59:10;104.67;;;45.53;;
60076;SDS011;45950;45.208;20.374;2023-04-06T04:01:37;51.33;;;24.27;;
60076;SDS011;45950;45.208;20.374;2023-04-06T04:04:04;31.10;;;18.50;;
60076;SDS011;45950;45.208;20.374;2023-04-06T04:06:31;111.20;;;46.20;;
60076;SDS011;45950;45.208;20.374;2023-04-06T04:08:57;147.53;;;57.07;;
60076;SDS011;45950;45.208;20.374;2023-04-06T04:11:24;80.67;;;31.40;;
60076;SDS011;45950;45.208;20.374;2023-04-06T04:13:50;46.60;;;23.27;;
60076;SDS011;45950;45.208;20.374;2023-04-06T04:16:18;34.17;;;19.80;;
60076;SDS011;45950;45.208;20.374;2023-04-06T04:18:45;30.97;;;17.93;;
60076;SDS011;45950;45.208;20.374;2023-04-06T04:21:13;28.57;;;17.93;;
60076;SDS011;45950;45.208;20.374;2023-04-06T04:23:39;31.57;;;17.13;;
60076;SDS011;45950;45.208;20.374;2023-04-06T04:26:06;24.47;;;15.50;;
60076;SDS011;45950;45.208;20.374;2023-04-06T04:28:33;27.73;;;16.23;;
60076;SDS011;45950;45.208;20.374;2023-04-06T04:30:59;30.77;;;18.80;;
60076;SDS011;45950;45.208;20.374;2023-04-06T04:33:27;33.60;;;21.33;;
60076;SDS011;45950;45.208;20.374;2023-04-06T04:35:53;34.93;;;21.00;;
60076;SDS011;45950;45.208;20.374;2023-04-06T04:38:20;153.53;;;64.80;;
60076;SDS011;45950;45.208;20.374;2023-04-06T04:40:46;132.37;;;62.47;;
60076;SDS011;45950;45.208;20.374;2023-04-06T04:46:01;40.00;;;24.23;;
60076;SDS011;45950;45.208;20.374;2023-04-06T04:48:31;33.80;;;22.00;;
60076;SDS011;45950;45.208;20.374;2023-04-06T04:51:04;28.23;;;18.13;;
60076;SDS011;45950;45.208;20.374;2023-04-06T04:53:30;30.10;;;19.70;;
60076;SDS011;45950;45.208;20.374;2023-04-06T04:55:57;32.97;;;20.33;;
60076;SDS011;45950;45.208;20.374;2023-04-06T04:58:23;33.10;;;20.17;;
60076;SDS011;45950;45.208;20.374;2023-04-06T05:00:50;33.13;;;19.70;;
60076;SDS011;45950;45.208;20.374;2023-04-06T05:03:18;31.83;;;20.97;;
60076;SDS011;45950;45.208;20.374;2023-04-06T05:05:58;46.50;;;25.87;;
60076;SDS011;45950;45.208;20.374;2023-04-06T05:08:24;48.10;;;25.27;;
60076;SDS011;45950;45.208;20.374;2023-04-06T05:10:51;54.33;;;29.03;;
60076;SDS011;45950;45.208;20.374;2023-04-06T05:13:17;35.20;;;23.00;;
60076;SDS011;45950;45.208;20.374;2023-04-06T05:15:44;35.00;;;23.40;;
60076;SDS011;45950;45.208;20.374;2023-04-06T05:18:11;32.00;;;20.40;;
60076;SDS011;45950;45.208;20.374;2023-04-06T05:20:38;37.77;;;20.27;;
60076;SDS011;45950;45.208;20.374;2023-04-06T05:23:06;43.47;;;24.67;;
60076;SDS011;45950;45.208;20.374;2023-04-06T05:25:33;34.87;;;21.13;;
60076;SDS011;45950;45.208;20.374;2023-04-06T05:30:53;36.17;;;18.97;;
60076;SDS011;45950;45.208;20.374;2023-04-06T05:33:20;23.90;;;14.33;;
60076;SDS011;45950;45.208;20.374;2023-04-06T05:35:46;22.03;;;14.80;;
60076;SDS011;45950;45.208;20.374;2023-04-06T05:38:14;23.00;;;15.10;;
60076;SDS011;45950;45.208;20.374;2023-04-06T05:40:41;19.40;;;12.57;;
60076;SDS011;45950;45.208;20.374;2023-04-06T05:43:07;19.87;;;12.73;;
60076;SDS011;45950;45.208;20.374;2023-04-06T05:45:34;20.77;;;12.33;;
60076;SDS011;45950;45.208;20.374;2023-04-06T05:48:01;19.53;;;11.47;;
60076;SDS011;45950;45.208;20.374;2023-04-06T05:50:28;20.80;;;12.80;;
60076;SDS011;45950;45.208;20.374;2023-04-06T05:52:54;23.80;;;14.30;;
60076;SDS011;45950;45.208;20.374;2023-04-06T05:55:22;20.90;;;12.07;;
60076;SDS011;45950;45.208;20.374;2023-04-06T05:57:49;19.93;;;11.27;;
60076;SDS011;45950;45.208;20.374;2023-04-06T06:00:15;18.87;;;10.47;;
60076;SDS011;45950;45.208;20.374;2023-04-06T06:02:42;18.70;;;11.13;;
60076;SDS011;45950;45.208;20.374;2023-04-06T06:05:08;23.37;;;14.00;;
60076;SDS011;45950;45.208;20.374;2023-04-06T06:07:35;21.43;;;13.10;;
60076;SDS011;45950;45.208;20.374;2023-04-06T06:10:01;18.63;;;11.07;;
60076;SDS011;45950;45.208;20.374;2023-04-06T06:12:29;22.83;;;11.93;;
60076;SDS011;45950;45.208;20.374;2023-04-06T06:14:56;22.47;;;12.13;;
60076;SDS011;45950;45.208;20.374;2023-04-06T06:17:22;23.53;;;12.97;;
60076;SDS011;45950;45.208;20.374;2023-04-06T06:19:49;21.53;;;13.10;;
60076;SDS011;45950;45.208;20.374;2023-04-06T06:22:15;22.90;;;12.70;;
60076;SDS011;45950;45.208;20.374;2023-04-06T06:24:42;20.37;;;11.77;;
60076;SDS011;45950;45.208;20.374;2023-04-06T06:27:08;15.80;;;9.80;;
60076;SDS011;45950;45.208;20.374;2023-04-06T06:29:36;17.73;;;11.47;;
60076;SDS011;45950;45.208;20.374;2023-04-06T06:32:03;16.93;;;10.60;;
60076;SDS011;45950;45.208;20.374;2023-04-06T06:34:29;16.13;;;10.47;;
60076;SDS011;45950;45.208;20.374;2023-04-06T06:36:56;14.43;;;8.80;;
60076;SDS011;45950;45.208;20.374;2023-04-06T06:39:22;13.67;;;9.00;;
60076;SDS011;45950;45.208;20.374;2023-04-06T06:41:50;11.00;;;7.60;;
60076;SDS011;45950;45.208;20.374;2023-04-06T06:44:16;11.17;;;7.80;;
60076;SDS011;45950;45.208;20.374;2023-04-06T06:46:44;16.27;;;9.20;;
60076;SDS011;45950;45.208;20.374;2023-04-06T06:49:11;14.83;;;8.27;;
60076;SDS011;45950;45.208;20.374;2023-04-06T06:51:37;13.27;;;8.57;;
60076;SDS011;45950;45.208;20.374;2023-04-06T06:54:04;14.33;;;8.33;;
60076;SDS011;45950;45.208;20.374;2023-04-06T06:56:30;12.33;;;7.87;;
60076;SDS011;45950;45.208;20.374;2023-04-06T06:58:57;15.23;;;9.70;;
60076;SDS011;45950;45.208;20.374;2023-04-06T07:01:23;13.05;;;7.88;;
60076;SDS011;45950;45.208;20.374;2023-04-06T07:03:51;15.80;;;8.75;;
60076;SDS011;45950;45.208;20.374;2023-04-06T07:06:18;10.70;;;7.55;;
60076;SDS011;45950;45.208;20.374;2023-04-06T07:08:44;13.68;;;7.82;;
60076;SDS011;45950;45.208;20.374;2023-04-06T07:11:11;11.80;;;8.45;;
60076;SDS011;45950;45.208;20.374;2023-04-06T07:13:37;13.68;;;7.57;;
60076;SDS011;45950;45.208;20.374;2023-04-06T07:16:04;13.75;;;8.18;;
60076;SDS011;45950;45.208;20.374;2023-04-06T07:18:30;12.77;;;7.82;;
60076;SDS011;45950;45.208;20.374;2023-04-06T07:20:58;15.30;;;8.95;;
60076;SDS011;45950;45.208;20.374;2023-04-06T07:23:25;14.35;;;7.97;;
60076;SDS011;45950;45.208;20.374;2023-04-06T07:25:51;16.13;;;9.52;;
60076;SDS011;45950;45.208;20.374;2023-04-06T07:28:19;22.23;;;10.35;;
60076;SDS011;45950;45.208;20.374;2023-04-06T07:30:47;15.55;;;8.38;;
60076;SDS011;45950;45.208;20.374;2023-04-06T07:33:13;13.48;;;8.13;;
60076;SDS011;45950;45.208;20.374;2023-04-06T07:35:59;16.75;;;9.50;;
60076;SDS011;45950;45.208;20.374;2023-04-06T07:38:25;15.73;;;9.23;;
60076;SDS011;45950;45.208;20.374;2023-04-06T07:40:52;17.02;;;9.05;;
60076;SDS011;45950;45.208;20.374;2023-04-06T07:43:21;17.75;;;8.27;;
60076;SDS011;45950;45.208;20.374;2023-04-06T07:45:48;16.52;;;8.27;;
60076;SDS011;45950;45.208;20.374;2023-04-06T07:48:14;15.05;;;8.15;;
60076;SDS011;45950;45.208;20.374;2023-04-06T07:50:41;11.90;;;6.85;;
60076;SDS011;45950;45.208;20.374;2023-04-06T07:53:09;12.02;;;7.25;;
60076;SDS011;45950;45.208;20.374;2023-04-06T07:55:35;10.15;;;5.80;;
60076;SDS011;45950;45.208;20.374;2023-04-06T07:58:02;12.27;;;7.50;;
60076;SDS011;45950;45.208;20.374;2023-04-06T08:00:29;11.82;;;7.10;;
60076;SDS011;45950;45.208;20.374;2023-04-06T08:02:56;12.43;;;7.88;;
60076;SDS011;45950;45.208;20.374;2023-04-06T08:05:22;12.20;;;6.88;;
60076;SDS011;45950;45.208;20.374;2023-04-06T08:07:49;10.93;;;6.55;;
60076;SDS011;45950;45.208;20.374;2023-04-06T08:10:17;11.85;;;7.47;;
60076;SDS011;45950;45.208;20.374;2023-04-06T08:12:43;12.38;;;7.20;;
60076;SDS011;45950;45.208;20.374;2023-04-06T08:15:10;12.32;;;7.45;;
60076;SDS011;45950;45.208;20.374;2023-04-06T08:17:36;11.18;;;7.07;;
60076;SDS011;45950;45.208;20.374;2023-04-06T08:20:03;10.35;;;6.72;;
60076;SDS011;45950;45.208;20.374;2023-04-06T08:22:40;10.18;;;6.43;;
60076;SDS011;45950;45.208;20.374;2023-04-06T08:25:07;10.23;;;7.03;;
60076;SDS011;45950;45.208;20.374;2023-04-06T08:27:35;10.65;;;7.03;;
60076;SDS011;45950;45.208;20.374;2023-04-06T08:30:02;11.75;;;6.40;;
60076;SDS011;45950;45.208;20.374;2023-04-06T08:32:28;8.60;;;6.03;;
60076;SDS011;45950;45.208;20.374;2023-04-06T08:34:55;10.93;;;6.80;;
60076;SDS011;45950;45.208;20.374;2023-04-06T08:40:25;10.95;;;6.80;;
60076;SDS011;45950;45.208;20.374;2023-04-06T08:42:54;10.02;;;6.82;;
60076;SDS011;45950;45.208;20.374;2023-04-06T08:45:21;11.95;;;7.05;;
60076;SDS011;45950;45.208;20.374;2023-04-06T08:47:48;13.05;;;7.63;;
60076;SDS011;45950;45.208;20.374;2023-04-06T08:53:04;10.32;;;7.00;;
60076;SDS011;45950;45.208;20.374;2023-04-06T08:55:32;12.60;;;7.20;;
60076;SDS011;45950;45.208;20.374;2023-04-06T08:58:00;9.35;;;6.50;;
60076;SDS011;45950;45.208;20.374;2023-04-06T09:00:26;10.27;;;6.35;;
60076;SDS011;45950;45.208;20.374;2023-04-06T09:02:54;13.15;;;7.35;;
60076;SDS011;45950;45.208;20.374;2023-04-06T09:05:21;11.32;;;7.10;;
60076;SDS011;45950;45.208;20.374;2023-04-06T09:07:49;10.60;;;6.57;;
60076;SDS011;45950;45.208;20.374;2023-04-06T09:10:16;9.18;;;6.28;;
60076;SDS011;45950;45.208;20.374;2023-04-06T09:15:47;10.68;;;6.45;;
60076;SDS011;45950;45.208;20.374;2023-04-06T09:18:27;10.80;;;6.78;;
60076;SDS011;45950;45.208;20.374;2023-04-06T09:20:59;9.38;;;6.95;;
60076;SDS011;45950;45.208;20.374;2023-04-06T09:23:25;9.30;;;6.55;;
60076;SDS011;45950;45.208;20.374;2023-04-06T09:25:52;9.77;;;6.10;;
60076;SDS011;45950;45.208;20.374;2023-04-06T09:28:18;9.43;;;5.82;;
60076;SDS011;45950;45.208;20.374;2023-04-06T09:30:48;9.90;;;5.90;;
60076;SDS011;45950;45.208;20.374;2023-04-06T09:33:23;10.20;;;6.45;;
60076;SDS011;45950;45.208;20.374;2023-04-06T09:35:49;11.90;;;7.43;;
60076;SDS011;45950;45.208;20.374;2023-04-06T09:38:16;8.85;;;6.40;;
60076;SDS011;45950;45.208;20.374;2023-04-06T09:43:45;9.88;;;6.70;;
60076;SDS011;45950;45.208;20.374;2023-04-06T09:46:13;12.10;;;8.10;;
60076;SDS011;45950;45.208;20.374;2023-04-06T09:48:41;10.50;;;7.05;;
60076;SDS011;45950;45.208;20.374;2023-04-06T09:51:07;11.77;;;7.07;;
60076;SDS011;45950;45.208;20.374;2023-04-06T09:53:36;11.20;;;7.03;;
60076;SDS011;45950;45.208;20.374;2023-04-06T09:56:05;7.75;;;6.18;;
60076;SDS011;45950;45.208;20.374;2023-04-06T09:58:34;11.30;;;7.18;;
60076;SDS011;45950;45.208;20.374;2023-04-06T10:01:05;9.65;;;7.20;;
60076;SDS011;45950;45.208;20.374;2023-04-06T10:03:35;10.57;;;6.90;;
60076;SDS011;45950;45.208;20.374;2023-04-06T10:06:04;9.85;;;6.93;;
60076;SDS011;45950;45.208;20.374;2023-04-06T10:08:32;12.27;;;7.78;;
60076;SDS011;45950;45.208;20.374;2023-04-06T10:13:46;15.77;;;8.25;;
60076;SDS011;45950;45.208;20.374;2023-04-06T10:16:14;11.98;;;8.20;;
60076;SDS011;45950;45.208;20.374;2023-04-06T10:18:43;17.45;;;8.48;;
60076;SDS011;45950;45.208;20.374;2023-04-06T10:21:12;11.02;;;7.45;;
60076;SDS011;45950;45.208;20.374;2023-04-06T10:23:41;10.38;;;7.20;;
60076;SDS011;45950;45.208;20.374;2023-04-06T10:26:12;11.60;;;7.88;;
60076;SDS011;45950;45.208;20.374;2023-04-06T10:28:40;10.07;;;6.72;;
60076;SDS011;45950;45.208;20.374;2023-04-06T10:31:07;12.02;;;8.68;;
60076;SDS011;45950;45.208;20.374;2023-04-06T10:33:54;11.10;;;7.15;;
60076;SDS011;45950;45.208;20.374;2023-04-06T10:36:22;10.02;;;7.25;;
60076;SDS011;45950;45.208;20.374;2023-04-06T10:38:53;12.52;;;7.25;;
60076;SDS011;45950;45.208;20.374;2023-04-06T10:41:20;14.50;;;7.40;;
60076;SDS011;45950;45.208;20.374;2023-04-06T10:43:54;16.27;;;7.80;;
60076;SDS011;45950;45.208;20.374;2023-04-06T10:46:24;13.43;;;8.57;;
60076;SDS011;45950;45.208;20.374;2023-04-06T10:48:51;13.32;;;7.40;;
60076;SDS011;45950;45.208;20.374;2023-04-06T10:51:19;12.15;;;7.63;;
60076;SDS011;45950;45.208;20.374;2023-04-06T10:53:52;13.68;;;8.63;;
60076;SDS011;45950;45.208;20.374;2023-04-06T10:56:21;10.95;;;7.22;;
60076;SDS011;45950;45.208;20.374;2023-04-06T10:58:48;9.82;;;7.25;;
60076;SDS011;45950;45.208;20.374;2023-04-06T11:01:15;12.43;;;8.40;;
60076;SDS011;45950;45.208;20.374;2023-04-06T11:03:42;13.23;;;9.48;;
60076;SDS011;45950;45.208;20.374;2023-04-06T11:06:09;11.05;;;7.05;;
60076;SDS011;45950;45.208;20.374;2023-04-06T11:08:37;10.85;;;7.68;;
60076;SDS011;45950;45.208;20.374;2023-04-06T11:11:05;12.05;;;8.82;;
60076;SDS011;45950;45.208;20.374;2023-04-06T11:13:41;12.48;;;7.72;;
60076;SDS011;45950;45.208;20.374;2023-04-06T11:16:11;12.63;;;10.30;;
60076;SDS011;45950;45.208;20.374;2023-04-06T11:18:45;16.23;;;12.63;;
60076;SDS011;45950;45.208;20.374;2023-04-06T11:21:12;12.35;;;8.10;;
60076;SDS011;45950;45.208;20.374;2023-04-06T11:23:40;12.05;;;8.10;;
60076;SDS011;45950;45.208;20.374;2023-04-06T11:26:09;11.35;;;8.27;;
60076;SDS011;45950;45.208;20.374;2023-04-06T11:28:36;12.52;;;6.72;;
60076;SDS011;45950;45.208;20.374;2023-04-06T11:31:03;15.50;;;8.75;;
60076;SDS011;45950;45.208;20.374;2023-04-06T11:33:29;14.10;;;7.57;;
60076;SDS011;45950;45.208;20.374;2023-04-06T11:36:01;13.77;;;8.30;;
60076;SDS011;45950;45.208;20.374;2023-04-06T11:38:27;11.75;;;7.53;;
60076;SDS011;45950;45.208;20.374;2023-04-06T11:40:55;12.88;;;8.63;;
60076;SDS011;45950;45.208;20.374;2023-04-06T11:43:25;12.02;;;8.70;;
60076;SDS011;45950;45.208;20.374;2023-04-06T11:45:52;16.70;;;11.02;;
60076;SDS011;45950;45.208;20.374;2023-04-06T11:48:25;12.23;;;7.95;;
60076;SDS011;45950;45.208;20.374;2023-04-06T11:51:05;11.18;;;7.68;;
60076;SDS011;45950;45.208;20.374;2023-04-06T11:53:32;57.67;;;26.10;;
60076;SDS011;45950;45.208;20.374;2023-04-06T11:56:00;60.03;;;32.80;;
60076;SDS011;45950;45.208;20.374;2023-04-06T11:58:29;31.67;;;24.95;;
60076;SDS011;45950;45.208;20.374;2023-04-06T12:01:02;14.88;;;9.40;;
60076;SDS011;45950;45.208;20.374;2023-04-06T12:03:29;12.80;;;8.88;;
60076;SDS011;45950;45.208;20.374;2023-04-06T12:05:55;16.08;;;9.35;;
60076;SDS011;45950;45.208;20.374;2023-04-06T12:08:22;12.90;;;8.70;;
60076;SDS011;45950;45.208;20.374;2023-04-06T12:10:50;12.05;;;8.18;;
60076;SDS011;45950;45.208;20.374;2023-04-06T12:13:18;16.45;;;10.25;;
60076;SDS011;45950;45.208;20.374;2023-04-06T12:15:45;16.77;;;11.40;;
60076;SDS011;45950;45.208;20.374;2023-04-06T12:18:11;13.00;;;8.82;;
60076;SDS011;45950;45.208;20.374;2023-04-06T12:20:38;13.30;;;8.98;;
60076;SDS011;45950;45.208;20.374;2023-04-06T12:23:04;13.63;;;8.98;;
60076;SDS011;45950;45.208;20.374;2023-04-06T12:25:31;14.00;;;10.05;;
60076;SDS011;45950;45.208;20.374;2023-04-06T12:28:01;14.43;;;9.35;;
60076;SDS011;45950;45.208;20.374;2023-04-06T12:30:29;17.23;;;10.55;;
60076;SDS011;45950;45.208;20.374;2023-04-06T12:32:57;13.80;;;9.73;;
60076;SDS011;45950;45.208;20.374;2023-04-06T12:35:24;14.55;;;10.52;;
60076;SDS011;45950;45.208;20.374;2023-04-06T12:37:51;16.75;;;10.65;;
60076;SDS011;45950;45.208;20.374;2023-04-06T12:40:17;17.77;;;11.48;;
60076;SDS011;45950;45.208;20.374;2023-04-06T12:42:44;14.82;;;10.70;;
60076;SDS011;45950;45.208;20.374;2023-04-06T12:45:20;14.38;;;10.02;;
60076;SDS011;45950;45.208;20.374;2023-04-06T12:47:48;14.07;;;10.95;;
60076;SDS011;45950;45.208;20.374;2023-04-06T12:50:15;14.35;;;10.70;;
60076;SDS011;45950;45.208;20.374;2023-04-06T12:52:41;25.80;;;17.23;;
60076;SDS011;45950;45.208;20.374;2023-04-06T12:55:08;28.33;;;16.30;;
60076;SDS011;45950;45.208;20.374;2023-04-06T12:57:34;18.45;;;13.60;;
60076;SDS011;45950;45.208;20.374;2023-04-06T13:00:02;17.30;;;10.90;;
60076;SDS011;45950;45.208;20.374;2023-04-06T13:02:29;15.25;;;11.35;;
60076;SDS011;45950;45.208;20.374;2023-04-06T13:04:57;16.42;;;9.80;;
60076;SDS011;45950;45.208;20.374;2023-04-06T13:07:24;14.63;;;10.50;;
60076;SDS011;45950;45.208;20.374;2023-04-06T13:09:50;17.60;;;11.93;;
60076;SDS011;45950;45.208;20.374;2023-04-06T13:12:17;20.55;;;12.88;;
60076;SDS011;45950;45.208;20.374;2023-04-06T13:14:44;18.52;;;11.32;;
60076;SDS011;45950;45.208;20.374;2023-04-06T13:17:23;12.50;;;9.30;;
60076;SDS011;45950;45.208;20.374;2023-04-06T13:19:49;17.73;;;11.68;;
60076;SDS011;45950;45.208;20.374;2023-04-06T13:22:17;17.58;;;11.80;;
60076;SDS011;45950;45.208;20.374;2023-04-06T13:24:43;17.60;;;11.45;;
60076;SDS011;45950;45.208;20.374;2023-04-06T13:27:10;16.60;;;12.55;;
60076;SDS011;45950;45.208;20.374;2023-04-06T13:29:37;16.67;;;12.43;;
60076;SDS011;45950;45.208;20.374;2023-04-06T13:32:03;26.90;;;16.65;;
60076;SDS011;45950;45.208;20.374;2023-04-06T13:34:30;22.33;;;13.30;;
60076;SDS011;45950;45.208;20.374;2023-04-06T13:36:56;16.60;;;12.30;;
60076;SDS011;45950;45.208;20.374;2023-04-06T13:39:24;30.90;;;18.50;;
60076;SDS011;45950;45.208;20.374;2023-04-06T13:41:53;19.77;;;12.88;;
60076;SDS011;45950;45.208;20.374;2023-04-06T13:44:20;15.20;;;11.02;;
60076;SDS011;45950;45.208;20.374;2023-04-06T13:46:47;17.90;;;13.45;;
60076;SDS011;45950;45.208;20.374;2023-04-06T13:49:13;23.13;;;13.77;;
60076;SDS011;45950;45.208;20.374;2023-04-06T13:51:40;14.80;;;10.43;;
60076;SDS011;45950;45.208;20.374;2023-04-06T13:54:07;17.00;;;11.85;;
60076;SDS011;45950;45.208;20.374;2023-04-06T13:56:35;16.15;;;11.02;;
60076;SDS011;45950;45.208;20.374;2023-04-06T13:59:02;15.95;;;11.98;;
60076;SDS011;45950;45.208;20.374;2023-04-06T14:01:28;17.77;;;12.32;;
60076;SDS011;45950;45.208;20.374;2023-04-06T14:03:55;19.90;;;13.32;;
60076;SDS011;45950;45.208;20.374;2023-04-06T14:06:21;15.25;;;11.45;;
60076;SDS011;45950;45.208;20.374;2023-04-06T14:08:48;21.27;;;13.32;;
60076;SDS011;45950;45.208;20.374;2023-04-06T14:11:15;42.92;;;22.55;;
60076;SDS011;45950;45.208;20.374;2023-04-06T14:13:43;16.27;;;11.57;;
60076;SDS011;45950;45.208;20.374;2023-04-06T14:16:09;22.40;;;16.38;;
60076;SDS011;45950;45.208;20.374;2023-04-06T14:18:36;31.98;;;19.73;;
60076;SDS011;45950;45.208;20.374;2023-04-06T14:21:03;20.10;;;12.70;;
60076;SDS011;45950;45.208;20.374;2023-04-06T14:23:29;21.90;;;15.73;;
60076;SDS011;45950;45.208;20.374;2023-04-06T14:26:03;18.45;;;13.18;;
60076;SDS011;45950;45.208;20.374;2023-04-06T14:28:30;46.75;;;27.30;;
60076;SDS011;45950;45.208;20.374;2023-04-06T14:30:58;38.75;;;22.63;;
60076;SDS011;45950;45.208;20.374;2023-04-06T14:33:25;22.95;;;15.93;;
60076;SDS011;45950;45.208;20.374;2023-04-06T14:35:51;20.92;;;12.73;;
60076;SDS011;45950;45.208;20.374;2023-04-06T14:38:18;16.30;;;11.48;;